Latest Weather Observations for Gatton

IDQ60901

Issued at 12:31 pm EST Saturday 23 May 2015 (issued every 10 minutes, with the page automatically refreshed every 10 minutes)

About weather observations | Map of Brisbane area stations | Latest observations for Brisbane area | Other Formats
Station Details ID: 040082 Name: UNIVERSITY OF QUEENSLAND GATTON Lat: -27.54 Lon: 152.34 Height: 89.0 m
Data from the previous 72 hours. | See also: Recent months at Gatton
Date/Time
EST
Tmp

°C
App
Tmp
°C
Dew
Point
°C
Rel
Hum
%
Delta-T

°C
Wind Press
QNH
hPa
Press
MSL
hPa
Rain
since
9 am
mm
Dir
 
Spd
km/h
Gust
km/h
Spd
kts
Gust
kts
23/12:30pm 21.1 16.2 8.4 44 6.7 SE 24 37 13 20 - - 0.0
23/12:00pm 21.4 18.1 9.6 47 6.4 S 17 28 9 15 - - 0.0
23/11:30am 20.4 15.6 9.0 48 6.0 SE 24 39 13 21 - - 0.0
23/11:00am 20.3 16.0 9.2 49 5.9 SE 22 41 12 22 - - 0.0
23/10:30am 19.6 15.3 9.2 51 5.5 SE 22 33 12 18 - - 0.0
23/10:00am 19.3 15.3 9.2 52 5.3 SSE 20 35 11 19 - - 0.0
23/09:30am 18.8 14.6 9.8 56 4.8 SSE 22 30 12 16 - - 0.0
23/09:00am 16.0 14.4 10.1 68 3.1 W 9 11 5 6 - - 0.0
23/08:30am 14.2 12.1 9.8 75 2.3 W 11 15 6 8 - - 0.0
23/08:00am 12.2 9.6 9.2 82 1.5 W 13 17 7 9 - - 0.0
23/07:30am 11.3 9.4 8.9 85 1.2 WSW 9 11 5 6 - - 0.0
23/07:00am 10.7 8.3 8.5 86 1.1 SW 11 17 6 9 - - 0.0
23/06:30am 11.2 8.5 8.9 86 1.1 SW 13 20 7 11 - - 0.0
23/06:00am 11.6 9.3 9.0 84 1.3 WNW 11 17 6 9 - - 0.0
23/05:30am 11.5 9.2 9.1 85 1.2 WSW 11 17 6 9 - - 0.0
23/05:00am 11.3 9.7 8.9 85 1.2 WSW 7 13 4 7 - - 0.0
23/04:30am 11.5 8.8 9.1 85 1.2 W 13 17 7 9 - - 0.0
23/04:00am 11.8 9.9 9.0 83 1.4 W 9 17 5 9 - - 0.0
23/03:30am 12.1 9.9 9.3 83 1.4 W 11 15 6 8 - - 0.0
23/03:00am 12.2 9.6 9.4 83 1.4 WSW 13 20 7 11 - - 0.0
23/02:30am 12.4 9.8 9.4 82 1.5 WSW 13 20 7 11 - - 0.0
23/02:00am 12.0 9.8 9.2 83 1.4 WSW 11 15 6 8 - - 0.0
23/01:30am 12.5 9.5 9.3 81 1.6 W 15 20 8 11 - - 0.0
23/01:00am 13.1 10.2 9.5 79 1.8 W 15 20 8 11 - - 0.0
23/12:30am 13.2 10.0 9.8 80 1.8 W 17 22 9 12 - - 0.0
23/12:00am 13.3 10.0 9.7 79 1.9 WSW 17 24 9 13 - - 0.0
 
Date/Time
EST
Tmp

°C
App
Tmp
°C
Dew
Point
°C
Rel
Hum
%
Delta-T

°C
Wind Press
QNH
hPa
Press
MSL
hPa
Rain
since
9 am
mm
Dir
 
Spd
km/h
Gust
km/h
Spd
kts
Gust
kts
22/11:30pm 13.6 9.7 9.6 77 2.1 WSW 20 32 11 17 - - 0.0
22/11:00pm 13.6 9.7 9.6 77 2.1 W 20 30 11 16 - - 0.0
22/10:30pm 13.5 9.2 9.4 76 2.1 W 22 30 12 16 - - 0.0
22/10:00pm 13.7 9.4 9.4 75 2.2 W 22 32 12 17 - - 0.0
22/09:30pm 13.7 9.4 9.2 74 2.3 W 22 30 12 16 - - 0.0
22/09:00pm 13.5 9.7 9.0 74 2.3 W 19 30 10 16 - - 0.0
22/08:30pm 13.8 9.9 8.8 72 2.5 W 19 24 10 13 - - 0.0
22/08:00pm 13.7 12.7 8.7 72 2.5 WSW 4 11 2 6 - - 0.0
22/07:30pm 14.2 11.0 8.6 69 2.8 W 15 24 8 13 - - 0.0
22/07:00pm 14.4 12.4 8.6 68 2.9 SW 9 20 5 11 - - 0.0
22/06:30pm 14.2 12.1 8.2 67 3.0 WSW 9 15 5 8 - - 0.0
22/06:00pm 14.6 11.7 8.1 65 3.3 W 13 26 7 14 - - 0.0
22/05:30pm 14.9 10.7 8.2 64 3.4 W 20 33 11 18 - - 0.0
22/05:00pm 15.2 10.1 7.7 61 3.7 WSW 24 41 13 22 - - 0.0
22/04:36pm 16.1 10.2 7.6 57 4.3 W 28 46 15 25 - - 0.0
22/04:30pm 16.2 9.4 7.9 58 4.2 W 33 50 18 27 - - 0.0
22/04:00pm 17.0 10.8 7.9 55 4.6 WSW 30 50 16 27 - - 0.0
22/03:57pm 17.0 10.7 7.6 54 4.7 WSW 30 50 16 27 - - 0.0
22/03:30pm 17.4 10.3 8.0 54 4.8 W 35 52 19 28 - - 0.0
22/03:20pm 17.6 11.3 7.6 52 5.1 WSW 30 50 16 27 - - 0.0
22/03:00pm 18.1 12.7 7.8 51 5.3 WSW 26 39 14 21 - - 0.0
22/02:30pm 17.8 11.0 7.8 52 5.1 WSW 33 52 18 28 - - 0.0
22/02:03pm 17.5 10.9 7.8 53 4.9 W 32 50 17 27 - - 0.0
22/02:00pm 17.6 11.0 7.9 53 4.9 W 32 48 17 26 - - 0.0
22/01:32pm 17.7 10.9 7.7 52 5.1 WSW 33 52 18 28 - - 0.0
22/01:30pm 17.6 10.3 7.4 51 5.2 W 35 52 19 28 - - 0.0
22/01:00pm 16.8 9.8 6.9 52 4.9 W 33 46 18 25 - - 0.0
22/12:40pm 17.0 10.1 6.5 50 5.2 W 32 50 17 27 - - 0.0
22/12:30pm 17.3 10.8 6.5 49 5.3 WSW 30 43 16 23 - - 0.0
22/12:00pm 17.0 9.2 6.8 51 5.1 W 37 50 20 27 - - 0.0
22/11:30am 16.0 9.5 6.4 53 4.7 WSW 30 46 16 25 - - 0.0
22/11:00am 16.4 10.0 6.8 53 4.8 WSW 30 48 16 26 - - 0.0
22/10:41am 16.6 10.3 7.5 55 4.6 WSW 30 48 16 26 - - 0.0
22/10:30am 16.0 8.5 6.4 53 4.7 WSW 35 48 19 26 - - 0.0
22/10:00am 16.1 9.7 8.6 61 3.8 W 32 44 17 24 - - 0.0
22/09:30am 15.1 9.3 7.9 62 3.6 WSW 28 48 15 26 - - 0.0
22/09:21am 15.0 9.1 7.3 60 3.8 WSW 28 46 15 25 - - 0.0
22/09:00am 14.9 9.9 7.9 63 3.5 W 24 35 13 19 - - 3.4
22/08:30am 14.5 10.4 8.5 67 3.0 W 20 35 11 19 - - 3.4
22/08:00am 13.8 9.0 9.0 73 2.4 W 24 37 13 20 - - 3.4
22/07:30am 13.1 7.4 8.4 73 2.3 W 28 41 15 22 - - 3.4
22/07:00am 12.8 8.6 8.1 73 2.3 W 20 32 11 17 - - 3.4
22/06:30am 11.0 8.8 8.0 82 1.5 WSW 9 11 5 6 - - 3.4
22/06:00am 11.7 9.5 8.0 78 1.8 NW 9 11 5 6 - - 3.4
22/05:30am 12.8 10.4 8.5 75 2.1 WNW 11 17 6 9 - - 3.4
22/05:00am 13.6 10.5 8.7 72 2.5 W 15 24 8 13 - - 3.4
22/04:30am 14.0 10.6 9.2 73 2.5 W 17 26 9 14 - - 3.4
22/04:00am 15.1 10.0 10.7 75 2.3 W 28 39 15 21 - - 3.4
22/03:30am 15.9 13.2 13.0 83 1.6 W 19 26 10 14 - - 3.4
22/03:00am 16.0 13.2 13.3 84 1.5 W 20 30 11 16 - - 3.4
22/02:30am 15.9 14.4 14.1 89 1.0 W 15 20 8 11 - - 3.4
22/02:00am 15.8 13.3 14.0 89 1.0 W 20 30 11 16 - - 3.4
22/01:30am 15.8 14.9 13.8 88 1.1 W 11 20 6 11 - - 3.4
22/01:00am 15.7 15.2 13.9 89 1.0 WNW 9 17 5 9 - - 3.4
22/12:30am 15.6 16.1 14.1 91 0.9 WNW 4 7 2 4 - - 3.2
22/12:00am 15.6 15.7 14.0 90 0.9 NW 6 9 3 5 - - 3.2
 
Date/Time
EST
Tmp

°C
App
Tmp
°C
Dew
Point
°C
Rel
Hum
%
Delta-T

°C
Wind Press
QNH
hPa
Press
MSL
hPa
Rain
since
9 am
mm
Dir
 
Spd
km/h
Gust
km/h
Spd
kts
Gust
kts
21/11:30pm 15.6 15.5 14.0 90 0.9 NW 7 11 4 6 - - 3.2
21/11:00pm 15.5 16.8 14.0 91 0.8 CALM 0 7 0 4 - - 3.2
21/10:30pm 15.5 15.7 14.2 92 0.7 W 6 7 3 4 - - 3.2
21/10:00pm 15.5 16.1 14.2 92 0.7 SSW 4 6 2 3 - - 3.0
21/09:30pm 15.7 16.4 14.4 92 0.7 WSW 4 7 2 4 - - 2.6
21/09:00pm 15.8 15.9 14.5 92 0.7 W 7 13 4 7 - - 2.0
21/08:30pm 15.9 15.6 14.4 91 0.9 W 9 13 5 7 - - 1.6
21/08:00pm 16.1 17.2 14.5 90 0.9 WNW 2 7 1 4 - - 1.4
21/07:30pm 16.3 16.6 14.5 89 1.0 W 6 9 3 5 - - 0.8
21/07:00pm 16.8 16.8 14.3 85 1.4 WSW 7 13 4 7 - - 0.0
21/06:30pm 17.5 17.4 13.8 79 2.1 WSW 7 11 4 6 - - 0.0
21/06:00pm 18.0 16.3 13.5 75 2.6 W 15 20 8 11 - - 0.0
21/05:30pm 18.7 18.0 13.3 71 3.1 W 9 15 5 8 - - 0.0
21/05:00pm 19.2 18.6 13.4 69 3.3 WSW 9 15 5 8 - - 0.0
21/04:30pm 19.9 17.7 13.4 66 3.7 WSW 17 24 9 13 - - 0.0
21/04:00pm 20.5 18.0 13.5 64 4.0 SW 19 30 10 16 - - 0.0
21/03:30pm 21.1 18.3 13.3 61 4.5 SW 20 30 11 16 - - 0.0
21/03:00pm 21.6 19.6 13.8 61 4.5 WSW 17 28 9 15 - - 0.0
21/02:30pm 21.6 19.7 14.3 63 4.3 W 17 22 9 12 - - 0.0
21/02:00pm 21.6 20.5 14.3 63 4.3 W 13 24 7 13 - - 0.0
21/01:30pm 21.3 20.3 14.7 66 3.9 W 13 19 7 10 - - 0.0
21/01:00pm 21.2 20.3 14.8 67 3.8 WNW 13 17 7 9 - - 0.0
21/12:30pm 21.1 20.0 15.4 70 3.4 W 15 20 8 11 - - 0.0
21/12:00pm 20.5 18.7 15.5 73 3.0 W 19 28 10 15 - - 0.0
21/11:30am 21.0 19.5 16.2 74 2.9 W 19 26 10 14 - - 0.0
21/11:00am 20.6 21.4 17.4 82 2.0 W 9 13 5 7 - - 0.0
21/10:30am 20.5 22.9 17.1 81 2.1 CALM 0 0 0 0 - - 0.0
21/10:00am 19.9 22.3 17.1 84 1.7 CALM 0 0 0 0 - - 0.0
21/09:30am 19.1 21.5 16.9 87 1.3 CALM 0 6 0 3 - - 0.0
21/09:00am 18.1 19.6 16.6 91 0.9 N 4 6 2 3 - - 0.0
21/08:30am 17.3 19.4 16.2 93 0.7 CALM 0 6 0 3 - - 0.0
21/08:00am 16.5 17.6 15.7 95 0.5 NNE 4 9 2 5 - - 0.0
21/07:30am 16.0 17.8 15.4 96 0.3 CALM 0 0 0 0 - - 0.0
21/07:00am 15.3 16.1 14.7 96 0.3 W 4 7 2 4 - - 0.0
21/06:30am 14.9 16.3 14.3 96 0.3 CALM 0 0 0 0 - - 0.0
21/06:00am 14.4 15.5 13.6 95 0.4 CALM 0 0 0 0 - - 0.0
21/05:30am 14.2 14.8 13.2 94 0.6 W 2 6 1 3 - - 0.0
21/05:00am 14.8 15.2 13.8 94 0.6 SW 4 7 2 4 - - 0.0
21/04:30am 15.3 14.7 14.7 96 0.3 W 11 15 6 8 - - 0.0
21/04:00am 14.1 14.0 13.3 95 0.4 WSW 6 11 3 6 - - 0.0
21/03:30am 14.5 15.7 13.7 95 0.4 CALM 0 0 0 0 - - 0.0
21/03:00am 13.8 14.7 12.9 94 0.5 CALM 0 0 0 0 - - 0.0
21/02:30am 13.4 13.3 12.1 92 0.7 WSW 4 6 2 3 - - 0.0
21/02:00am 14.2 15.2 13.2 94 0.6 CALM 0 0 0 0 - - 0.0
21/01:30am 14.4 15.5 13.4 94 0.6 CALM 0 0 0 0 - - 0.0
21/01:00am 14.5 14.7 13.2 92 0.7 WSW 4 7 2 4 - - 0.0
21/12:30am 14.8 15.8 13.2 90 0.9 CALM 0 0 0 0 - - 0.0
21/12:00am 15.8 17.2 14.5 92 0.7 CALM 0 0 0 0 - - 0.0
 
Date/Time
EST
Tmp

°C
App
Tmp
°C
Dew
Point
°C
Rel
Hum
%
Delta-T

°C
Wind Press
QNH
hPa
Press
MSL
hPa
Rain
since
9 am
mm
Dir
 
Spd
km/h
Gust
km/h
Spd
kts
Gust
kts
20/11:30pm 16.4 18.0 14.9 91 0.9 CALM 0 0 0 0 - - 0.0
20/11:00pm 16.5 16.9 14.7 89 1.0 WSW 6 7 3 4 - - 0.0
20/10:30pm 16.9 17.3 15.4 91 0.9 W 7 9 4 5 - - 0.0
20/10:00pm 17.5 19.4 15.8 90 1.0 CALM 0 0 0 0 - - 0.0
20/09:30pm 17.6 19.0 15.4 87 1.3 W 2 7 1 4 - - 0.0
20/09:00pm 17.7 19.7 15.9 89 1.1 CALM 0 0 0 0 - - 0.0
20/08:30pm 17.7 19.5 15.5 87 1.3 CALM 0 0 0 0 - - 0.0
20/08:00pm 18.0 19.8 15.6 86 1.4 CALM 0 0 0 0 - - 0.0
20/07:30pm 18.2 20.1 15.8 86 1.4 CALM 0 0 0 0 - - 0.0
20/07:00pm 18.9 21.0 16.3 85 1.6 CALM 0 0 0 0 - - 0.0
20/06:30pm 20.0 21.1 16.6 81 2.1 SSE 6 7 3 4 - - 0.0
20/06:00pm 20.4 21.3 16.0 76 2.6 SE 6 7 3 4 - - 0.0
20/05:30pm 21.9 22.7 16.4 71 3.3 ENE 7 9 4 5 - - 0.0
20/05:00pm 23.1 24.0 16.6 67 4.0 NE 7 11 4 6 - - 0.0
20/04:30pm 24.0 24.2 16.8 64 4.4 NE 11 15 6 8 - - 0.0
20/04:00pm 24.5 24.4 17.0 63 4.7 NNE 13 17 7 9 - - 0.0
20/03:30pm 25.1 25.4 17.0 60 5.0 NNE 11 17 6 9 - - 0.0
20/03:00pm 25.3 25.4 17.5 62 4.9 NNE 13 17 7 9 - - 0.0
20/02:30pm 24.9 25.2 17.1 62 4.9 NE 11 15 6 8 - - 0.0
20/02:00pm 24.6 24.8 16.8 62 4.8 NE 11 19 6 10 - - 0.0
20/01:30pm 24.3 24.5 16.8 63 4.6 ENE 11 15 6 8 - - 0.0
20/01:00pm 23.8 24.4 16.8 65 4.3 NE 9 15 5 8 - - 0.0

Latest Capital City Observations: Canberra | Sydney | Melbourne | Brisbane | Adelaide | Perth | Hobart | Darwin

Other Formats:

Comma delimited format used in spreadsheet applications
http://www.bom.gov.au/fwo/IDQ60901/IDQ60901.94562.axf

JavaScript Object Notation format (JSON) in row-major order
http://www.bom.gov.au/fwo/IDQ60901/IDQ60901.94562.json